Time;durP1;ratioP1;P1;durP2;ratioP2;P2;SDS_P1;SDS_P2;PMS_P1;PMS_P2;Temp;Humidity;BMP_temperature;BMP_pressure;BME280_temperature;BME280_humidity;BME280_pressure;Samples;Min_cycle;Max_cycle;Signal;HPM_P1;HPM_P2
2021/09/27 00:01:39;;;;;;;7.35;3.00;;;;;;;;;;143732;570;46018;-90
2021/09/27 00:04:09;;;;;;;;;;;;;;;;;;143741;971;47023;-92
2021/09/27 00:06:51;;;;;;;6.80;3.50;;;;;;;;;;143743;578;47018;-92
2021/09/27 00:09:32;;;;;;;4.55;2.85;;;;;;;;;;143733;664;46011;-93
2021/09/27 00:12:04;;;;;;;3.87;3.20;;;;;;;;;;143732;692;47042;-92
2021/09/27 00:14:36;;;;;;;5.78;2.92;;;;;;;;;;143738;588;45022;-92
2021/09/27 00:17:25;;;;;;;4.22;3.35;;;;;;;;;;143737;583;46911;-94
2021/09/27 00:20:17;;;;;;;3.70;2.78;;;;;;;;;;143737;628;45022;-92
2021/09/27 00:23:11;;;;;;;5.28;4.15;;;;;;;;;;143738;565;45018;-91
2021/09/27 00:26:35;;;;;;;;;;;;;;;;;;;;;
2021/09/27 00:29:40;;;;;;;4.43;3.58;;;;;;;;;;143737;621;45020;-87
2021/09/27 00:32:22;;;;;;;4.68;3.25;;;;;;;;;;143736;632;45023;-91
2021/09/27 00:35:13;;;;;;;6.45;3.40;;;;;;;;;;143737;564;46018;-92
2021/09/27 00:37:46;;;;;;;4.00;3.47;;;;;;;;;;143737;633;46010;-90
2021/09/27 00:40:24;;;;;;;3.75;3.25;;;;;;;;;;143734;668;47018;-91
2021/09/27 00:42:57;;;;;;;5.82;3.25;;;;;;;;;;143737;600;45022;-91
2021/09/27 00:45:34;;;;;;;7.37;3.62;;;;;;;;;;143734;567;47018;-90
2021/09/27 00:48:02;;;;;;;5.00;3.55;;;;;;;;;;143736;654;46011;-89
2021/09/27 00:50:38;;;;;;;4.37;3.90;;;;;;;;;;143732;570;47018;-92
2021/09/27 00:53:13;;;;;;;7.62;3.42;;;;;;;;;;143734;635;46010;-93
2021/09/27 00:55:44;;;;;;;5.93;3.45;;;;;;;;;;143735;651;46019;-90
2021/09/27 00:58:52;;;;;;;4.00;3.60;;;;;;;;;;143734;641;46010;-92
2021/09/27 01:01:56;;;;;;;6.18;3.80;;;;;;;;;;143733;676;46020;-92
2021/09/27 01:05:01;;;;;;;;;;;;;;;;;;;;;
2021/09/27 01:07:53;;;;;;;6.35;3.17;;;;;;;;;;143733;617;46018;-90
2021/09/27 01:10:59;;;;;;;4.68;3.28;;;;;;;;;;143736;628;46008;-90
2021/09/27 01:14:03;;;;;;;4.87;3.10;;;;;;;;;;143734;575;46018;-91
2021/09/27 01:16:47;;;;;;;;;;;;;;;;;;143737;979;46010;-90
2021/09/27 01:19:56;;;;;;;4.43;3.33;;;;;;;;;;143741;592;46018;-91
2021/09/27 01:22:58;;;;;;;7.97;3.70;;;;;;;;;;143735;628;46012;-92
2021/09/27 01:26:03;;;;;;;4.75;3.50;;;;;;;;;;143731;604;47018;-91
2021/09/27 01:29:16;;;;;;;5.10;3.90;;;;;;;;;;143734;609;46012;-89
2021/09/27 01:32:20;;;;;;;7.55;4.90;;;;;;;;;;143734;570;46019;-91
2021/09/27 01:35:30;;;;;;;11.07;6.30;;;;;;;;;;143735;675;46014;-94
2021/09/27 01:38:55;;;;;;;11.15;6.40;;;;;;;;;;143734;628;46018;-92
2021/09/27 01:42:01;;;;;;;;;;;;;;;;;;;;;
2021/09/27 01:45:11;;;;;;;8.77;6.68;;;;;;;;;;143734;631;47018;-91
2021/09/27 01:48:24;;;;;;;12.60;6.68;;;;;;;;;;143734;569;46013;-91
2021/09/27 01:51:44;;;;;;;9.88;5.95;;;;;;;;;;143735;620;46018;-91
2021/09/27 01:55:05;;;;;;;9.13;6.40;;;;;;;;;;143734;667;46013;-91
2021/09/27 01:58:15;;;;;;;10.23;6.78;;;;;;;;;;143734;637;46018;-93
2021/09/27 02:01:14;;;;;;;11.30;8.18;;;;;;;;;;143736;567;46012;-93
2021/09/27 02:04:21;;;;;;;10.35;8.55;;;;;;;;;;143734;791;46026;-91
2021/09/27 02:06:55;;;;;;;11.23;7.82;;;;;;;;;;143732;589;46012;-88
2021/09/27 02:10:12;;;;;;;10.27;8.90;;;;;;;;;;143732;611;47018;-91
2021/09/27 02:13:27;;;;;;;12.40;9.38;;;;;;;;;;143734;605;46014;-91
2021/09/27 02:16:22;;;;;;;13.82;8.10;;;;;;;;;;143732;678;47022;-92
2021/09/27 02:19:27;;;;;;;10.98;7.25;;;;;;;;;;143736;622;45023;-91
2021/09/27 02:22:05;;;;;;;11.93;7.35;;;;;;;;;;143736;615;46018;-92
2021/09/27 02:24:54;;;;;;;10.90;6.72;;;;;;;;;;143735;656;46020;-93
2021/09/27 02:27:40;;;;;;;14.85;6.90;;;;;;;;;;143731;566;47020;-90
2021/09/27 02:30:28;;;;;;;6.80;4.68;;;;;;;;;;143734;599;46917;-90
2021/09/27 02:33:30;;;;;;;7.50;3.70;;;;;;;;;;143734;572;46014;-92
2021/09/27 02:36:33;;;;;;;8.60;4.80;;;;;;;;;;143734;563;46022;-91
2021/09/27 02:39:42;;;;;;;5.30;4.22;;;;;;;;;;143732;648;47020;-92
2021/09/27 02:42:54;;;;;;;10.02;4.57;;;;;;;;;;143733;569;45918;-91
2021/09/27 02:45:34;;;;;;;9.55;6.15;;;;;;;;;;143733;590;47018;-91
2021/09/27 02:48:41;;;;;;;12.73;6.22;;;;;;;;;;143734;617;46012;-90
2021/09/27 02:51:18;;;;;;;7.32;4.55;;;;;;;;;;143733;637;46049;-89
2021/09/27 02:54:06;;;;;;;;;;;;;;;;;;;;;
2021/09/27 02:57:12;;;;;;;8.30;3.53;;;;;;;;;;143737;597;45020;-89
2021/09/27 03:00:30;;;;;;;6.28;3.17;;;;;;;;;;143736;671;46012;-92
2021/09/27 03:03:35;;;;;;;;;;;;;;;;;;;;;
2021/09/27 03:06:44;;;;;;;3.72;3.03;;;;;;;;;;143733;646;46022;-90
2021/09/27 03:10:11;;;;;;;5.80;2.92;;;;;;;;;;143733;570;46045;-91
2021/09/27 03:13:44;;;;;;;;;;;;;;;;;;;;;
2021/09/27 03:16:52;;;;;;;7.07;3.23;;;;;;;;;;143732;649;46020;-92
2021/09/27 03:19:59;;;;;;;4.62;3.95;;;;;;;;;;143731;580;46012;-91
2021/09/27 03:22:51;;;;;;;8.48;4.22;;;;;;;;;;143735;614;46019;-91
2021/09/27 03:26:04;;;;;;;8.57;4.50;;;;;;;;;;143735;635;46012;-90
2021/09/27 03:29:27;;;;;;;6.37;4.47;;;;;;;;;;143730;563;46910;-91
2021/09/27 03:32:14;;;;;;;;;;;;;;;;;;143737;979;46012;-91
2021/09/27 03:35:20;;;;;;;14.68;4.60;;;;;;;;;;143743;631;46020;-92
2021/09/27 03:38:38;;;;;;;;;;;;;;;;;;;;;
2021/09/27 03:41:55;;;;;;;8.40;4.25;;;;;;;;;;143734;686;46022;-90
2021/09/27 03:44:52;;;;;;;7.62;4.15;;;;;;;;;;143735;580;45919;-90
2021/09/27 03:47:38;;;;;;;7.75;3.72;;;;;;;;;;143734;658;46019;-92
2021/09/27 03:50:43;;;;;;;12.73;5.30;;;;;;;;;;143735;637;46022;-91
2021/09/27 03:53:29;;;;;;;10.10;3.92;;;;;;;;;;143731;581;47020;-90
2021/09/27 03:56:19;;;;;;;9.02;3.83;;;;;;;;;;143735;679;46010;-92
2021/09/27 03:59:13;;;;;;;5.85;4.18;;;;;;;;;;143734;601;46049;-93
2021/09/27 04:02:05;;;;;;;7.40;4.35;;;;;;;;;;143736;632;46012;-91
2021/09/27 04:05:20;;;;;;;14.38;4.78;;;;;;;;;;143731;631;47020;-90
2021/09/27 04:08:25;;;;;;;17.33;7.25;;;;;;;;;;143735;617;46010;-91
2021/09/27 04:12:04;;;;;;;;;;;;;;;;;;;;;
2021/09/27 04:15:06;;;;;;;9.13;3.58;;;;;;;;;;143735;806;46046;-91
2021/09/27 04:18:17;;;;;;;5.95;4.32;;;;;;;;;;143734;683;46021;-90
2021/09/27 04:20:59;;;;;;;10.57;4.70;;;;;;;;;;143732;676;46010;-90
2021/09/27 04:24:02;;;;;;;7.40;4.22;;;;;;;;;;143734;642;47019;-92
2021/09/27 04:27:19;;;;;;;6.60;4.17;;;;;;;;;;143735;596;46010;-91
2021/09/27 04:30:24;;;;;;;10.68;4.47;;;;;;;;;;143733;613;46020;-92
2021/09/27 04:33:18;;;;;;;9.95;5.00;;;;;;;;;;143734;572;46022;-91
2021/09/27 04:35:53;;;;;;;;;;;;;;;;;;143741;971;45020;-88
2021/09/27 04:38:20;;;;;;;12.43;4.75;;;;;;;;;;143746;673;46020;-91
2021/09/27 04:41:23;;;;;;;12.02;4.80;;;;;;;;;;143734;575;46018;-90
2021/09/27 04:44:16;;;;;;;16.87;5.00;;;;;;;;;;143733;626;46012;-91
2021/09/27 04:47:15;;;;;;;10.67;6.00;;;;;;;;;;143733;642;47019;-91
2021/09/27 04:50:49;;;;;;;7.55;5.45;;;;;;;;;;143736;626;46012;-91
2021/09/27 04:53:41;;;;;;;21.25;5.85;;;;;;;;;;143731;571;47020;-92
2021/09/27 04:57:14;;;;;;;15.82;5.68;;;;;;;;;;143733;604;46918;-89
2021/09/27 05:00:07;;;;;;;16.60;5.53;;;;;;;;;;143734;675;46015;-91
2021/09/27 05:03:33;;;;;;;15.35;5.70;;;;;;;;;;143737;570;46012;-90
2021/09/27 05:06:27;;;;;;;26.60;6.57;;;;;;;;;;143731;646;47018;-91
2021/09/27 05:09:34;;;;;;;22.55;6.45;;;;;;;;;;143737;583;46014;-88
2021/09/27 05:12:38;;;;;;;25.27;6.55;;;;;;;;;;143734;585;46018;-89
2021/09/27 05:15:55;;;;;;;12.52;7.28;;;;;;;;;;143736;623;46020;-90
2021/09/27 05:18:47;;;;;;;14.80;6.68;;;;;;;;;;143732;581;47020;-88
2021/09/27 05:21:46;;;;;;;20.62;6.03;;;;;;;;;;143733;676;46012;-88
2021/09/27 05:24:38;;;;;;;23.10;7.70;;;;;;;;;;143734;590;46018;-88
2021/09/27 05:27:42;;;;;;;12.63;7.05;;;;;;;;;;143736;610;46012;-89
2021/09/27 05:30:54;;;;;;;35.40;8.95;;;;;;;;;;143733;643;47020;-90
2021/09/27 05:33:50;;;;;;;25.77;8.52;;;;;;;;;;143733;589;46012;-87
2021/09/27 05:36:57;;;;;;;20.02;7.37;;;;;;;;;;143735;589;46015;-88
2021/09/27 05:40:06;;;;;;;13.15;5.80;;;;;;;;;;143736;583;46012;-87
2021/09/27 05:43:19;;;;;;;11.93;5.80;;;;;;;;;;143733;653;46018;-86
2021/09/27 05:46:34;;;;;;;8.73;5.30;;;;;;;;;;143732;572;46013;-87
2021/09/27 05:49:29;;;;;;;8.93;4.60;;;;;;;;;;143734;601;46018;-87
2021/09/27 05:52:04;;;;;;;18.67;5.43;;;;;;;;;;143734;577;46013;-89
2021/09/27 05:54:53;;;;;;;9.70;5.00;;;;;;;;;;143733;604;46014;-88
2021/09/27 05:57:50;;;;;;;13.00;6.10;;;;;;;;;;143731;573;46022;-90
2021/09/27 06:01:02;;;;;;;10.25;4.95;;;;;;;;;;143733;592;46019;-89
2021/09/27 06:04:03;;;;;;;8.68;5.20;;;;;;;;;;143736;569;46012;-87
2021/09/27 06:07:19;;;;;;;15.60;5.25;;;;;;;;;;143734;571;46018;-89
2021/09/27 06:10:36;;;;;;;12.57;4.60;;;;;;;;;;143731;581;46012;-87
2021/09/27 06:13:21;;;;;;;8.90;4.30;;;;;;;;;;143733;594;47018;-88
2021/09/27 06:15:52;;;;;;;13.82;3.90;;;;;;;;;;143734;569;46013;-87
2021/09/27 06:19:18;;;;;;;8.70;4.43;;;;;;;;;;143734;608;46016;-89
2021/09/27 06:22:31;;;;;;;6.70;4.15;;;;;;;;;;143733;594;46012;-88
2021/09/27 06:25:32;;;;;;;17.40;4.55;;;;;;;;;;143734;570;46018;-89
2021/09/27 06:28:29;;;;;;;8.05;3.90;;;;;;;;;;143737;594;46022;-87
2021/09/27 06:31:08;;;;;;;11.00;4.87;;;;;;;;;;143734;579;47021;-87
2021/09/27 06:34:01;;;;;;;9.07;4.53;;;;;;;;;;143733;576;46022;-88
2021/09/27 06:36:33;;;;;;;5.53;3.25;;;;;;;;;;143734;589;47019;-88
2021/09/27 06:39:04;;;;;;;5.70;3.37;;;;;;;;;;143737;564;46012;-88
2021/09/27 06:41:34;;;;;;;7.45;3.58;;;;;;;;;;143730;572;47020;-88
2021/09/27 06:44:00;;;;;;;6.12;3.53;;;;;;;;;;143733;608;46015;-88
2021/09/27 06:46:27;;;;;;;6.40;3.30;;;;;;;;;;143733;574;47018;-87
2021/09/27 06:48:54;;;;;;;8.88;3.75;;;;;;;;;;143735;648;46012;-89
2021/09/27 06:51:52;;;;;;;13.95;4.53;;;;;;;;;;143733;593;47020;-89
2021/09/27 06:54:39;;;;;;;;;;;;;;;;;;;;;
2021/09/27 06:57:06;;;;;;;17.25;5.40;;;;;;;;;;143736;572;46018;-88
2021/09/27 06:59:43;;;;;;;5.07;3.70;;;;;;;;;;143737;565;46013;-90
2021/09/27 07:02:18;;;;;;;7.03;4.03;;;;;;;;;;143734;574;47020;-91
2021/09/27 07:04:53;;;;;;;5.82;4.30;;;;;;;;;;143736;596;46022;-91
2021/09/27 07:07:30;;;;;;;4.47;3.62;;;;;;;;;;143734;583;46019;-90
2021/09/27 07:10:02;;;;;;;6.60;3.58;;;;;;;;;;143737;587;47020;-89
2021/09/27 07:12:31;;;;;;;4.87;3.15;;;;;;;;;;143736;623;46018;-89
2021/09/27 07:15:00;;;;;;;7.62;3.33;;;;;;;;;;143732;598;46013;-88
2021/09/27 07:17:28;;;;;;;6.22;3.12;;;;;;;;;;143735;582;47018;-89
2021/09/27 07:19:56;;;;;;;8.68;3.60;;;;;;;;;;143737;566;46012;-88
2021/09/27 07:22:23;;;;;;;4.30;3.28;;;;;;;;;;143732;590;47020;-90
2021/09/27 07:24:51;;;;;;;8.30;3.75;;;;;;;;;;143732;626;46012;-86
2021/09/27 07:27:18;;;;;;;7.72;3.30;;;;;;;;;;143732;592;47018;-87
2021/09/27 07:29:45;;;;;;;6.32;3.53;;;;;;;;;;143738;570;46012;-87
2021/09/27 07:32:11;;;;;;;5.75;3.58;;;;;;;;;;143735;660;46016;-88
2021/09/27 07:34:38;;;;;;;5.15;3.50;;;;;;;;;;143732;596;46916;-90
2021/09/27 07:37:04;;;;;;;4.87;3.42;;;;;;;;;;143736;608;47019;-87
2021/09/27 07:39:32;;;;;;;10.68;4.07;;;;;;;;;;143736;581;46023;-86
2021/09/27 07:41:59;;;;;;;6.55;3.75;;;;;;;;;;143735;565;47020;-87
2021/09/27 07:44:26;;;;;;;13.15;4.25;;;;;;;;;;143736;583;46014;-87
2021/09/27 07:46:52;;;;;;;9.25;3.80;;;;;;;;;;143735;578;46018;-88
2021/09/27 07:49:19;;;;;;;6.57;4.45;;;;;;;;;;143739;635;46022;-88
2021/09/27 07:51:46;;;;;;;13.93;5.10;;;;;;;;;;143734;569;47020;-86
2021/09/27 07:54:13;;;;;;;8.80;4.15;;;;;;;;;;143735;612;46012;-88
2021/09/27 07:56:40;;;;;;;7.80;4.35;;;;;;;;;;143735;629;47018;-86
2021/09/27 07:59:06;;;;;;;13.27;4.78;;;;;;;;;;143735;601;46013;-88
2021/09/27 08:01:34;;;;;;;8.25;4.72;;;;;;;;;;143736;583;46014;-87
2021/09/27 08:04:01;;;;;;;9.25;4.80;;;;;;;;;;143734;582;46012;-87
2021/09/27 08:06:28;;;;;;;9.32;4.30;;;;;;;;;;143731;573;48019;-87
2021/09/27 08:08:54;;;;;;;9.00;4.47;;;;;;;;;;143737;708;46012;-87
2021/09/27 08:11:21;;;;;;;8.20;4.68;;;;;;;;;;143735;569;46018;-87
2021/09/27 08:13:48;;;;;;;7.65;4.65;;;;;;;;;;143733;581;46013;-88
2021/09/27 08:16:14;;;;;;;12.05;4.80;;;;;;;;;;143733;611;47018;-89
2021/09/27 08:18:41;;;;;;;8.40;4.15;;;;;;;;;;143736;725;46012;-87
2021/09/27 08:21:12;;;;;;;7.85;5.03;;;;;;;;;;143733;570;47019;-88
2021/09/27 08:23:38;;;;;;;8.45;4.82;;;;;;;;;;143737;564;46014;-88
2021/09/27 08:26:06;;;;;;;13.65;4.95;;;;;;;;;;143735;570;46018;-89
2021/09/27 08:28:36;;;;;;;11.65;5.00;;;;;;;;;;143736;585;46013;-89
2021/09/27 08:31:10;;;;;;;8.63;4.75;;;;;;;;;;143733;610;47021;-89
2021/09/27 08:33:39;;;;;;;7.97;4.40;;;;;;;;;;143733;618;46012;-88
2021/09/27 08:36:09;;;;;;;8.90;4.75;;;;;;;;;;143736;572;46019;-88
2021/09/27 08:38:39;;;;;;;6.60;4.25;;;;;;;;;;143736;571;47020;-88
2021/09/27 08:41:46;;;;;;;11.80;4.75;;;;;;;;;;143733;578;47018;-89
2021/09/27 08:44:42;;;;;;;11.20;5.22;;;;;;;;;;143733;587;46012;-87
2021/09/27 08:47:52;;;;;;;9.18;3.87;;;;;;;;;;143735;619;46018;-89
2021/09/27 08:50:42;;;;;;;9.35;4.53;;;;;;;;;;143735;592;46022;-88
2021/09/27 08:53:28;;;;;;;10.90;4.68;;;;;;;;;;143736;570;46021;-88
2021/09/27 08:56:06;;;;;;;6.85;4.95;;;;;;;;;;143733;569;46012;-88
2021/09/27 08:58:43;;;;;;;6.93;4.70;;;;;;;;;;143734;598;46018;-87
2021/09/27 09:01:18;;;;;;;8.50;4.53;;;;;;;;;;143736;628;46020;-88
2021/09/27 09:04:16;;;;;;;10.90;4.72;;;;;;;;;;143733;625;47018;-86
2021/09/27 09:06:51;;;;;;;11.35;4.12;;;;;;;;;;143733;578;46014;-88
2021/09/27 09:09:37;;;;;;;7.20;4.40;;;;;;;;;;143734;569;47016;-87
2021/09/27 09:12:32;;;;;;;5.32;4.37;;;;;;;;;;143736;582;46013;-87
2021/09/27 09:15:20;;;;;;;12.18;5.90;;;;;;;;;;143731;587;48018;-87
2021/09/27 09:18:25;;;;;;;6.50;4.50;;;;;;;;;;143734;564;46012;-88
2021/09/27 09:21:02;;;;;;;12.55;4.62;;;;;;;;;;143736;564;46019;-88
2021/09/27 09:23:44;;;;;;;5.97;4.57;;;;;;;;;;143736;594;46020;-89
2021/09/27 09:26:14;;;;;;;7.57;3.95;;;;;;;;;;143735;569;46020;-88
2021/09/27 09:28:47;;;;;;;4.20;3.65;;;;;;;;;;143734;587;46013;-90
2021/09/27 09:31:26;;;;;;;7.53;3.60;;;;;;;;;;143738;569;46018;-87
2021/09/27 09:34:00;;;;;;;5.43;3.47;;;;;;;;;;143734;623;46022;-89
2021/09/27 09:36:39;;;;;;;5.28;3.50;;;;;;;;;;143735;595;46019;-87
2021/09/27 09:39:28;;;;;;;9.77;3.85;;;;;;;;;;143736;635;46022;-89
2021/09/27 09:42:01;;;;;;;4.97;3.62;;;;;;;;;;143734;577;46018;-88
2021/09/27 09:44:40;;;;;;;;;;;;;;;;;;143740;979;47023;-88
2021/09/27 09:47:28;;;;;;;6.30;3.40;;;;;;;;;;143746;570;46020;-89
2021/09/27 09:50:32;;;;;;;7.43;3.67;;;;;;;;;;143736;564;46023;-90
2021/09/27 09:53:03;;;;;;;;;;;;;;;;;;143739;980;46018;-89
2021/09/27 09:55:51;;;;;;;3.53;3.20;;;;;;;;;;143748;588;46022;-87
2021/09/27 09:58:58;;;;;;;10.80;3.25;;;;;;;;;;143737;608;46020;-87
2021/09/27 10:01:36;;;;;;;6.15;4.20;;;;;;;;;;143735;693;46022;-88
2021/09/27 10:04:12;;;;;;;4.18;3.58;;;;;;;;;;143735;597;46017;-89
2021/09/27 10:07:07;;;;;;;5.40;3.53;;;;;;;;;;143737;569;46012;-89
2021/09/27 10:09:46;;;;;;;5.20;3.55;;;;;;;;;;143736;631;46018;-89
2021/09/27 10:12:48;;;;;;;8.23;3.50;;;;;;;;;;143734;598;46012;-88
2021/09/27 10:15:46;;;;;;;7.45;3.67;;;;;;;;;;143739;683;45034;-88
2021/09/27 10:18:29;;;;;;;4.82;3.30;;;;;;;;;;143739;577;45036;-88
2021/09/27 10:21:26;;;;;;;5.18;3.22;;;;;;;;;;143734;576;46015;-90
2021/09/27 10:24:00;;;;;;;10.75;2.85;;;;;;;;;;143736;595;46012;-89
2021/09/27 10:26:36;;;;;;;4.60;3.10;;;;;;;;;;143733;631;47018;-89
2021/09/27 10:29:12;;;;;;;5.97;3.15;;;;;;;;;;143737;569;46013;-87
2021/09/27 10:31:45;;;;;;;3.87;2.70;;;;;;;;;;143734;638;46020;-88
2021/09/27 10:34:19;;;;;;;5.85;3.17;;;;;;;;;;143733;638;46012;-87
2021/09/27 10:37:01;;;;;;;3.28;2.92;;;;;;;;;;143736;653;46019;-88
2021/09/27 10:39:36;;;;;;;5.97;3.13;;;;;;;;;;143736;590;47022;-88
2021/09/27 10:42:59;;;;;;;8.25;3.12;;;;;;;;;;143737;650;46019;-88
2021/09/27 10:45:31;;;;;;;9.15;2.92;;;;;;;;;;143731;579;47014;-87
2021/09/27 10:48:02;;;;;;;4.25;3.10;;;;;;;;;;143736;643;46018;-91
2021/09/27 10:51:04;;;;;;;4.35;3.05;;;;;;;;;;143736;567;47021;-90
2021/09/27 10:54:07;;;;;;;3.00;2.70;;;;;;;;;;143737;643;46018;-89
2021/09/27 10:56:41;;;;;;;4.82;2.42;;;;;;;;;;143734;570;46013;-87
2021/09/27 10:59:44;;;;;;;4.72;2.85;;;;;;;;;;143735;576;47018;-90
2021/09/27 11:02:46;;;;;;;6.45;3.12;;;;;;;;;;143735;569;47024;-90
2021/09/27 11:05:27;;;;;;;6.47;2.30;;;;;;;;;;143735;609;46019;-89
2021/09/27 11:07:55;;;;;;;4.60;3.17;;;;;;;;;;143733;580;46012;-91
2021/09/27 11:10:37;;;;;;;8.32;2.83;;;;;;;;;;143737;570;46018;-94
2021/09/27 11:13:05;;;;;;;4.55;3.00;;;;;;;;;;143736;586;47023;-92
2021/09/27 11:15:38;;;;;;;6.97;2.62;;;;;;;;;;143733;614;47018;-89
2021/09/27 11:18:33;;;;;;;;;;;;;;;;;;143736;979;47022;-89
2021/09/27 11:21:24;;;;;;;4.37;2.45;;;;;;;;;;143744;598;47018;-87
2021/09/27 11:24:21;;;;;;;4.55;2.60;;;;;;;;;;143737;564;46020;-88
2021/09/27 11:27:26;;;;;;;3.58;2.83;;;;;;;;;;143736;659;46020;-90
2021/09/27 11:30:17;;;;;;;5.25;2.60;;;;;;;;;;143735;581;46022;-88
2021/09/27 11:32:57;;;;;;;4.37;2.67;;;;;;;;;;143733;597;46018;-91
2021/09/27 11:35:42;;;;;;;7.85;2.67;;;;;;;;;;143734;574;46010;-88
2021/09/27 11:38:35;;;;;;;15.85;3.28;;;;;;;;;;143732;585;46012;-90
2021/09/27 11:41:26;;;;;;;3.58;2.67;;;;;;;;;;143733;590;46022;-90
2021/09/27 11:48:27;;;;;;;4.70;3.12;;;;;;;;;;143734;580;46022;-91
2021/09/27 11:51:27;;;;;;;10.90;2.92;;;;;;;;;;143729;616;47907;-87
2021/09/27 11:54:48;;;;;;;6.03;3.10;;;;;;;;;;143732;651;46010;-90
2021/09/27 11:57:50;;;;;;;6.28;2.83;;;;;;;;;;143735;642;46019;-90
2021/09/27 12:00:24;;;;;;;5.53;2.60;;;;;;;;;;143735;571;46010;-89
2021/09/27 12:03:32;;;;;;;3.28;2.80;;;;;;;;;;143732;613;46020;-88
2021/09/27 12:06:26;;;;;;;4.25;2.70;;;;;;;;;;143732;576;46023;-90
2021/09/27 12:09:44;;;;;;;5.12;3.03;;;;;;;;;;143733;613;47018;-87
2021/09/27 12:12:25;;;;;;;3.42;2.78;;;;;;;;;;143737;607;46023;-90
2021/09/27 12:15:05;;;;;;;4.77;2.70;;;;;;;;;;143734;673;46018;-91
2021/09/27 12:17:53;;;;;;;4.78;3.75;;;;;;;;;;143732;579;46013;-87
2021/09/27 12:20:43;;;;;;;6.22;3.35;;;;;;;;;;143737;608;45019;-89
2021/09/27 12:23:17;;;;;;;6.00;2.87;;;;;;;;;;143739;636;45030;-83
2021/09/27 12:25:53;;;;;;;5.85;4.37;;;;;;;;;;143734;570;46018;-89
2021/09/27 12:28:34;;;;;;;7.45;3.50;;;;;;;;;;143736;614;45917;-88
2021/09/27 12:31:10;;;;;;;3.55;3.03;;;;;;;;;;143737;574;45018;-82
2021/09/27 12:33:44;;;;;;;4.22;2.78;;;;;;;;;;143739;602;45023;-90
2021/09/27 12:36:21;;;;;;;4.55;2.42;;;;;;;;;;143736;581;45908;-83
2021/09/27 12:39:04;;;;;;;;;;;;;;;;;;;;;
2021/09/27 12:41:34;;;;;;;9.23;2.93;;;;;;;;;;143736;664;45023;-91
2021/09/27 12:44:18;;;;;;;5.95;2.80;;;;;;;;;;143739;621;45023;-90
2021/09/27 12:46:55;;;;;;;2.90;2.60;;;;;;;;;;143735;609;46020;-90
2021/09/27 12:50:07;;;;;;;3.45;2.97;;;;;;;;;;143734;583;46023;-88
2021/09/27 12:52:59;;;;;;;4.68;3.20;;;;;;;;;;143738;569;45018;-88
2021/09/27 12:55:57;;;;;;;9.40;3.15;;;;;;;;;;143736;598;46023;-90
2021/09/27 12:58:43;;;;;;;5.60;3.12;;;;;;;;;;143735;586;46018;-88
2021/09/27 13:01:26;;;;;;;4.85;3.08;;;;;;;;;;143735;592;46022;-89
2021/09/27 13:04:57;;;;;;;3.35;3.05;;;;;;;;;;143736;610;46018;-90
2021/09/27 13:07:43;;;;;;;4.78;2.80;;;;;;;;;;143738;640;46022;-88
2021/09/27 13:10:22;;;;;;;5.90;3.17;;;;;;;;;;143736;583;45022;-90
2021/09/27 13:13:38;;;;;;;;;;;;;;;;;;;;;
2021/09/27 13:16:18;;;;;;;4.18;3.05;;;;;;;;;;143734;615;46018;-90
2021/09/27 13:18:48;;;;;;;7.25;3.35;;;;;;;;;;143737;575;46011;-88
2021/09/27 13:21:34;;;;;;;4.03;2.92;;;;;;;;;;143734;579;46018;-89
2021/09/27 13:24:12;;;;;;;3.85;3.03;;;;;;;;;;143733;607;46010;-92
2021/09/27 13:27:06;;;;;;;4.45;3.25;;;;;;;;;;143734;608;46019;-90
2021/09/27 13:29:49;;;;;;;3.45;3.15;;;;;;;;;;143734;574;46010;-89
2021/09/27 13:32:37;;;;;;;3.70;3.35;;;;;;;;;;143732;590;46020;-89
2021/09/27 13:35:40;;;;;;;;;;;;;;;;;;;;;
2021/09/27 13:38:35;;;;;;;3.67;2.85;;;;;;;;;;143735;617;46014;-90
2021/09/27 13:41:47;;;;;;;3.47;2.58;;;;;;;;;;143734;576;46010;-87
2021/09/27 13:44:51;;;;;;;4.40;2.90;;;;;;;;;;143731;594;47018;-87
2021/09/27 13:47:26;;;;;;;4.60;3.50;;;;;;;;;;143732;586;46010;-89
2021/09/27 13:49:56;;;;;;;3.72;2.80;;;;;;;;;;143734;594;46012;-88
2021/09/27 13:52:30;;;;;;;3.80;2.85;;;;;;;;;;143734;611;46010;-88
2021/09/27 13:55:05;;;;;;;3.35;2.95;;;;;;;;;;143731;583;47020;-90
2021/09/27 13:57:32;;;;;;;5.05;3.05;;;;;;;;;;143733;565;46010;-87
2021/09/27 13:59:59;;;;;;;4.07;3.03;;;;;;;;;;143734;585;46018;-91
2021/09/27 14:02:25;;;;;;;4.72;2.95;;;;;;;;;;143735;576;46021;-87
2021/09/27 14:04:52;;;;;;;7.45;3.05;;;;;;;;;;143728;595;47021;-87
2021/09/27 14:07:21;;;;;;;5.53;3.37;;;;;;;;;;143731;569;46019;-88
2021/09/27 14:09:50;;;;;;;4.93;3.05;;;;;;;;;;143733;619;46018;-89
2021/09/27 14:12:19;;;;;;;4.60;3.08;;;;;;;;;;143736;607;46010;-90
2021/09/27 14:14:51;;;;;;;4.12;3.37;;;;;;;;;;143733;564;46020;-89
2021/09/27 14:17:20;;;;;;;5.07;3.20;;;;;;;;;;143732;616;46010;-88
2021/09/27 14:19:51;;;;;;;4.97;3.15;;;;;;;;;;143733;567;46019;-88
2021/09/27 14:22:22;;;;;;;3.72;3.20;;;;;;;;;;143735;569;46010;-85
2021/09/27 14:24:51;;;;;;;3.30;3.00;;;;;;;;;;143733;564;46015;-89
2021/09/27 14:27:20;;;;;;;5.32;3.58;;;;;;;;;;143732;585;46023;-88
2021/09/27 14:29:46;;;;;;;5.50;2.97;;;;;;;;;;143732;569;47018;-87
2021/09/27 14:32:17;;;;;;;6.47;3.30;;;;;;;;;;143737;570;45027;-86
2021/09/27 14:34:43;;;;;;;3.50;3.17;;;;;;;;;;143731;603;47018;-88
2021/09/27 14:37:11;;;;;;;3.90;2.90;;;;;;;;;;143732;594;46010;-87
2021/09/27 14:39:47;;;;;;;4.05;3.20;;;;;;;;;;143732;569;47020;-88
2021/09/27 14:42:14;;;;;;;4.18;3.78;;;;;;;;;;143736;602;47018;-89
2021/09/27 14:44:41;;;;;;;4.32;3.22;;;;;;;;;;143730;574;47020;-87
2021/09/27 14:47:08;;;;;;;3.50;3.17;;;;;;;;;;143730;589;46012;-87
2021/09/27 14:49:37;;;;;;;3.35;2.97;;;;;;;;;;143732;574;47018;-84
2021/09/27 14:52:09;;;;;;;6.57;3.28;;;;;;;;;;143733;603;46010;-88
2021/09/27 14:54:36;;;;;;;3.83;2.78;;;;;;;;;;143732;570;46020;-88
2021/09/27 14:57:16;;;;;;;;;;;;;;;;;;;;;
2021/09/27 14:59:43;;;;;;;2.95;2.65;;;;;;;;;;143734;607;46014;-90
2021/09/27 15:02:11;;;;;;;6.85;2.70;;;;;;;;;;143734;572;46021;-89
2021/09/27 15:04:37;;;;;;;3.70;3.00;;;;;;;;;;143734;585;46018;-85
2021/09/27 15:07:08;;;;;;;7.15;3.08;;;;;;;;;;143734;634;46022;-87
2021/09/27 15:09:36;;;;;;;6.97;2.72;;;;;;;;;;143734;679;46013;-86
2021/09/27 15:12:03;;;;;;;3.47;2.90;;;;;;;;;;143735;629;46010;-87
2021/09/27 15:14:29;;;;;;;5.25;2.87;;;;;;;;;;143733;631;46018;-86
2021/09/27 15:16:56;;;;;;;3.35;2.95;;;;;;;;;;143734;583;46010;-87
2021/09/27 15:19:24;;;;;;;8.18;3.05;;;;;;;;;;143731;632;47019;-86
2021/09/27 15:21:53;;;;;;;6.68;3.05;;;;;;;;;;143734;592;46010;-87
2021/09/27 15:24:22;;;;;;;7.95;3.47;;;;;;;;;;143731;589;47019;-87
2021/09/27 15:26:50;;;;;;;3.87;3.12;;;;;;;;;;143732;564;46010;-90
2021/09/27 15:29:20;;;;;;;4.85;2.87;;;;;;;;;;143733;564;46018;-86
2021/09/27 15:31:59;;;;;;;5.80;3.50;;;;;;;;;;143734;620;46011;-87
2021/09/27 15:34:33;;;;;;;11.77;3.62;;;;;;;;;;143733;588;46019;-86
2021/09/27 15:37:08;;;;;;;5.82;3.42;;;;;;;;;;143732;586;46010;-87
2021/09/27 15:39:35;;;;;;;5.65;2.97;;;;;;;;;;143733;616;47018;-87
2021/09/27 15:42:02;;;;;;;4.65;3.33;;;;;;;;;;143736;608;46023;-86
2021/09/27 15:44:32;;;;;;;3.85;3.45;;;;;;;;;;143730;608;47020;-88
2021/09/27 15:47:05;;;;;;;9.48;5.43;;;;;;;;;;143735;571;46022;-87
2021/09/27 15:49:37;;;;;;;4.53;3.58;;;;;;;;;;143734;596;46019;-90
2021/09/27 15:52:08;;;;;;;5.47;3.40;;;;;;;;;;143736;576;46010;-87
2021/09/27 15:54:35;;;;;;;6.50;3.60;;;;;;;;;;143730;616;47020;-85
2021/09/27 15:57:02;;;;;;;7.87;3.90;;;;;;;;;;143733;646;46010;-86
2021/09/27 15:59:35;;;;;;;5.00;3.33;;;;;;;;;;143734;585;46018;-89
2021/09/27 16:02:05;;;;;;;7.62;3.97;;;;;;;;;;143730;587;48022;-87
2021/09/27 16:04:34;;;;;;;4.22;3.62;;;;;;;;;;143735;583;46021;-87
2021/09/27 16:07:03;;;;;;;6.30;4.05;;;;;;;;;;143734;595;46010;-87
2021/09/27 16:09:34;;;;;;;5.40;4.07;;;;;;;;;;143733;565;46019;-87
2021/09/27 16:12:02;;;;;;;6.40;3.70;;;;;;;;;;143733;609;46023;-86
2021/09/27 16:14:29;;;;;;;6.32;3.83;;;;;;;;;;143732;571;47018;-86
2021/09/27 16:16:57;;;;;;;4.85;3.83;;;;;;;;;;143730;572;46012;-89
2021/09/27 16:19:32;;;;;;;7.32;3.53;;;;;;;;;;143734;624;46034;-86
2021/09/27 16:22:07;;;;;;;3.87;3.22;;;;;;;;;;143735;587;46022;-87
2021/09/27 16:24:45;;;;;;;8.18;3.95;;;;;;;;;;143732;584;46013;-88
2021/09/27 16:27:16;;;;;;;5.53;3.72;;;;;;;;;;143734;645;45919;-87
2021/09/27 16:29:43;;;;;;;7.65;4.20;;;;;;;;;;143735;580;46018;-88
2021/09/27 16:32:12;;;;;;;6.10;3.87;;;;;;;;;;143734;631;46011;-87
2021/09/27 16:34:43;;;;;;;6.18;3.97;;;;;;;;;;143733;590;46021;-87
2021/09/27 16:37:53;;;;;;;5.28;4.43;;;;;;;;;;143731;581;46022;-88
2021/09/27 16:40:09;;;;;;;7.12;3.22;;;;;;;;;;143735;572;46019;-88
2021/09/27 16:42:42;;;;;;;5.80;3.85;;;;;;;;;;143734;599;46022;-87
2021/09/27 16:45:21;;;;;;;7.85;3.87;;;;;;;;;;143729;569;47018;-89
2021/09/27 16:47:48;;;;;;;9.15;4.32;;;;;;;;;;143732;589;47022;-86
2021/09/27 16:50:15;;;;;;;8.45;5.00;;;;;;;;;;143731;593;46018;-86
2021/09/27 16:52:42;;;;;;;9.68;4.62;;;;;;;;;;143735;628;46010;-88